createdAt,value
2018-11-22T12:17:33.285Z,2.35
2018-11-22T12:20:01.925Z,2.44
2018-11-22T12:22:30.476Z,2.44
2018-11-22T12:24:59.084Z,2.45
2018-11-22T12:27:27.642Z,2.51
2018-11-22T12:29:56.254Z,2.54
2018-11-22T12:32:30.056Z,2.46
2018-11-22T12:35:00.182Z,2.39
2018-11-22T12:37:43.338Z,2.40
2018-11-22T12:40:12.079Z,2.44
2018-11-22T12:42:40.664Z,2.47
2018-11-22T12:45:10.166Z,2.51
2018-11-22T12:47:38.782Z,2.44
2018-11-22T12:50:09.202Z,2.37
2018-11-22T12:52:37.825Z,2.29
2018-11-22T12:55:08.353Z,2.33
2018-11-22T12:57:36.882Z,2.23
2018-11-22T13:00:06.808Z,2.23
2018-11-22T13:02:35.435Z,2.23
2018-11-22T13:05:04.067Z,2.28
2018-11-22T13:07:32.654Z,2.37
2018-11-22T13:10:01.251Z,2.37
2018-11-22T13:12:29.803Z,2.31
2018-11-22T13:14:58.347Z,2.23
2018-11-22T13:17:27.242Z,2.16
2018-11-22T13:19:55.852Z,2.11
2018-11-22T13:22:24.399Z,2.11
2018-11-22T13:24:52.938Z,2.10
2018-11-22T13:27:21.480Z,2.15
2018-11-22T13:29:50.076Z,2.13
2018-11-22T13:32:21.543Z,2.15
2018-11-22T13:34:47.459Z,2.13
2018-11-22T13:37:16.025Z,2.07
2018-11-22T13:39:44.799Z,2.08
2018-11-22T13:42:13.384Z,2.02
2018-11-22T13:44:41.920Z,2.00
2018-11-22T13:47:10.471Z,1.96
2018-11-22T13:49:39.079Z,1.90
2018-11-22T13:52:07.670Z,1.89
2018-11-22T13:54:36.250Z,1.87
2018-11-22T13:57:04.803Z,1.86
2018-11-22T13:59:33.350Z,1.89
2018-11-22T14:02:01.904Z,1.87
2018-11-22T14:04:30.470Z,1.86
2018-11-22T14:06:59.078Z,1.87
2018-11-22T14:09:27.634Z,1.86
2018-11-22T14:11:56.243Z,1.87
2018-11-22T14:14:24.884Z,1.90
2018-11-22T14:16:53.449Z,1.85
2018-11-22T14:19:21.993Z,1.89
2018-11-22T14:21:50.534Z,1.91
2018-11-22T14:24:19.182Z,1.88
2018-11-22T14:26:47.825Z,1.95
2018-11-22T14:29:20.484Z,1.96
2018-11-22T14:31:49.028Z,1.98
2018-11-22T14:34:17.710Z,2.02
2018-11-22T14:36:46.299Z,1.95
2018-11-22T14:39:14.901Z,1.93
2018-11-22T14:41:43.495Z,2.01
2018-11-22T14:44:12.026Z,2.06
2018-11-22T14:46:40.579Z,2.01
2018-11-22T14:49:09.175Z,1.97
2018-11-22T14:51:41.478Z,1.94
2018-11-22T14:54:10.120Z,1.94
2018-11-22T14:56:38.726Z,1.97
2018-11-22T14:59:07.376Z,1.93
2018-11-22T15:01:35.923Z,1.89
2018-11-22T15:04:05.068Z,1.89
2018-11-22T15:06:33.665Z,1.89
2018-11-22T15:09:02.228Z,1.93
2018-11-22T15:11:30.776Z,1.94
2018-11-22T15:13:59.343Z,1.89
2018-11-22T15:16:27.912Z,1.85
2018-11-22T15:18:56.531Z,1.82
2018-11-22T15:21:25.120Z,1.88
2018-11-22T15:23:53.642Z,1.85
2018-11-22T15:26:22.201Z,1.82
2018-11-22T15:28:50.930Z,1.81
2018-11-22T15:31:19.496Z,1.77
2018-11-22T15:33:48.039Z,1.78
2018-11-22T15:36:16.646Z,1.85
2018-11-22T15:38:45.195Z,1.88
2018-11-22T15:41:13.810Z,1.87
2018-11-22T15:43:42.372Z,1.86
2018-11-22T15:46:10.938Z,1.88
2018-11-22T15:48:39.502Z,1.89
2018-11-22T15:51:08.066Z,1.89
2018-11-22T15:53:36.690Z,1.88
2018-11-22T15:56:05.295Z,1.93
2018-11-22T15:58:33.859Z,1.94
2018-11-22T16:01:02.489Z,1.94
2018-11-22T16:03:31.104Z,1.93
2018-11-22T16:05:59.642Z,1.91
2018-11-22T16:08:28.183Z,1.79
2018-11-22T16:10:56.804Z,1.84
2018-11-22T16:13:25.999Z,1.86
2018-11-22T16:15:55.271Z,1.82
2018-11-22T16:18:23.839Z,1.84
2018-11-22T16:20:52.406Z,1.79
2018-11-22T16:23:20.970Z,1.83
2018-11-22T16:25:49.865Z,1.86
2018-11-22T16:28:18.484Z,1.89
2018-11-22T16:30:47.163Z,1.90
2018-11-22T16:33:15.753Z,1.87
2018-11-22T16:35:44.335Z,1.88
2018-11-22T16:38:12.967Z,1.87
2018-11-22T16:40:41.617Z,1.86
2018-11-22T16:43:10.214Z,1.87
2018-11-22T16:45:39.263Z,1.91
2018-11-22T16:48:09.910Z,1.89
2018-11-22T16:50:39.735Z,1.84
2018-11-22T16:53:08.850Z,1.84
2018-11-22T16:55:37.401Z,1.84
2018-11-22T16:58:06.740Z,1.85
2018-11-22T17:00:36.518Z,1.85
2018-11-22T17:03:09.777Z,1.87
2018-11-22T17:05:38.504Z,1.90
2018-11-22T17:08:07.745Z,1.87
2018-11-22T17:10:36.754Z,1.85
2018-11-22T17:13:05.924Z,1.87
2018-11-22T17:15:35.749Z,1.89
2018-11-22T17:18:04.996Z,1.95
2018-11-22T17:20:33.949Z,1.98
2018-11-22T17:23:03.027Z,1.96
2018-11-22T17:25:32.922Z,1.91
2018-11-22T17:28:05.931Z,1.88
2018-11-22T17:30:36.123Z,1.91
2018-11-22T17:33:05.147Z,1.87
2018-11-22T17:35:33.955Z,1.85
2018-11-22T17:38:03.924Z,1.87
2018-11-22T17:40:35.126Z,1.88
2018-11-22T17:43:03.783Z,1.92
2018-11-22T17:45:33.912Z,1.89
2018-11-22T17:48:02.848Z,1.90
2018-11-22T17:50:33.922Z,1.95
2018-11-22T17:53:02.813Z,1.95
2018-11-22T17:55:32.495Z,1.98
2018-11-22T17:58:01.731Z,1.94
2018-11-22T18:00:36.819Z,1.90
2018-11-22T18:03:06.110Z,1.98
2018-11-22T18:05:34.967Z,1.95
2018-11-22T18:08:03.583Z,1.96
2018-11-22T18:10:34.458Z,2.01
2018-11-22T18:13:03.074Z,2.02
2018-11-22T18:15:34.295Z,1.91
2018-11-22T18:18:02.858Z,1.99
2018-11-22T18:20:32.295Z,2.07
2018-11-22T18:23:01.752Z,2.08
2018-11-22T18:25:31.623Z,2.05
2018-11-22T18:28:00.506Z,2.10
2018-11-22T18:30:31.210Z,2.12
2018-11-22T18:33:01.388Z,2.13
2018-11-22T18:35:30.020Z,2.12
2018-11-22T18:37:58.751Z,2.04
2018-11-22T18:40:28.792Z,2.06
2018-11-22T18:42:58.483Z,2.04
2018-11-22T18:45:33.447Z,2.00
2018-11-22T18:48:03.168Z,1.94
2018-11-22T18:50:32.760Z,1.88
2018-11-22T18:53:01.858Z,1.87
2018-11-22T18:55:30.482Z,1.91
2018-11-22T18:57:59.177Z,1.91
2018-11-22T19:00:31.151Z,1.91
2018-11-22T19:03:01.304Z,1.88
2018-11-22T19:05:30.227Z,1.90
2018-11-22T19:07:59.436Z,1.89
2018-11-22T19:10:30.269Z,1.87
2018-11-22T19:13:00.368Z,1.86
2018-11-22T19:15:30.539Z,1.86
2018-11-22T19:17:59.204Z,1.91
2018-11-22T19:20:32.123Z,1.95
2018-11-22T19:23:01.526Z,2.01
2018-11-22T19:25:30.434Z,1.97
2018-11-22T19:28:00.031Z,1.95
2018-11-22T19:30:37.392Z,2.01
2018-11-22T19:33:03.370Z,2.07
2018-11-22T19:35:33.703Z,2.08
2018-11-22T19:38:02.339Z,1.97
2018-11-22T19:40:33.129Z,1.97
2018-11-22T19:43:03.323Z,1.96
2018-11-22T19:45:34.647Z,2.02
2018-11-22T19:48:03.212Z,2.02
2018-11-22T19:50:32.383Z,2.04
2018-11-22T19:53:02.215Z,2.04
2018-11-22T19:55:31.970Z,1.99
2018-11-22T19:58:01.924Z,1.99
2018-11-22T20:00:31.309Z,2.06
2018-11-22T20:03:01.254Z,2.07
2018-11-22T20:05:31.198Z,2.04
2018-11-22T20:08:01.243Z,2.08
2018-11-22T20:10:31.955Z,2.01
2018-11-22T20:13:01.434Z,1.99
2018-11-22T20:15:30.232Z,1.97
2018-11-22T20:17:59.558Z,1.99
2018-11-22T20:20:28.371Z,1.92
2018-11-22T20:22:57.344Z,1.95
2018-11-22T20:25:26.155Z,1.97
2018-11-22T20:27:56.324Z,1.89
2018-11-22T20:30:29.987Z,1.91
2018-11-22T20:32:58.646Z,1.93
2018-11-22T20:35:27.876Z,1.96
2018-11-22T20:37:56.571Z,1.95
2018-11-22T20:40:34.766Z,2.00
2018-11-22T20:43:03.725Z,2.00
2018-11-22T20:45:33.244Z,2.01
2018-11-22T20:48:05.274Z,2.05
2018-11-22T20:50:34.292Z,1.94
2018-11-22T20:53:02.907Z,1.96
2018-11-22T20:55:34.016Z,1.90
2018-11-22T20:58:03.943Z,1.91
2018-11-22T21:00:34.321Z,1.88
2018-11-22T21:03:03.097Z,1.88
2018-11-22T21:05:32.243Z,1.85
2018-11-22T21:08:02.737Z,1.89
2018-11-22T21:10:32.618Z,1.96
2018-11-22T21:13:05.696Z,1.97
2018-11-22T21:15:35.067Z,1.94
2018-11-22T21:18:06.438Z,1.95
2018-11-22T21:20:36.791Z,1.91
2018-11-22T21:23:06.234Z,1.86
2018-11-22T21:25:35.208Z,1.85
2018-11-22T21:28:03.978Z,1.85
2018-11-22T21:30:34.913Z,1.88
2018-11-22T21:33:04.051Z,1.88
2018-11-22T21:35:33.261Z,1.88
2018-11-22T21:38:03.079Z,1.90
2018-11-22T21:40:32.698Z,1.92
2018-11-22T21:43:01.311Z,1.92
2018-11-22T21:45:30.772Z,1.88
2018-11-22T21:47:59.635Z,1.89
2018-11-22T21:50:29.105Z,1.84
2018-11-22T21:52:57.993Z,1.80
2018-11-22T21:55:27.967Z,1.77
2018-11-22T21:57:57.837Z,1.82
2018-11-22T22:00:31.626Z,1.89
2018-11-22T22:03:03.445Z,1.87
2018-11-22T22:05:32.847Z,1.84
2018-11-22T22:08:01.700Z,1.85
2018-11-22T22:10:30.854Z,1.83
2018-11-22T22:12:59.970Z,1.80
2018-11-22T22:15:30.788Z,1.85
2018-11-22T22:17:59.751Z,1.83
2018-11-22T22:20:30.473Z,1.81
2018-11-22T22:22:59.874Z,1.80
2018-11-22T22:25:29.337Z,1.81
2018-11-22T22:27:58.884Z,1.80
2018-11-22T22:30:29.178Z,1.85
2018-11-22T22:32:59.647Z,1.81
2018-11-22T22:35:28.889Z,1.87
2018-11-22T22:37:57.589Z,1.85
2018-11-22T22:40:27.593Z,1.78
2018-11-22T22:42:57.427Z,1.78
2018-11-22T22:45:27.021Z,1.78
2018-11-22T22:47:55.751Z,1.74
2018-11-22T22:50:26.734Z,1.75
2018-11-22T22:52:57.204Z,1.75
2018-11-22T22:55:25.982Z,1.72
2018-11-22T22:57:54.532Z,1.78
2018-11-22T23:00:30.127Z,1.79
2018-11-22T23:03:01.027Z,1.69
2018-11-22T23:05:30.242Z,1.78
2018-11-22T23:07:58.874Z,1.85
2018-11-22T23:10:27.630Z,1.83
2018-11-22T23:12:56.913Z,1.77
2018-11-22T23:15:26.562Z,1.75
2018-11-22T23:17:55.512Z,1.80
2018-11-22T23:20:25.598Z,1.78
2018-11-22T23:22:54.411Z,1.80
2018-11-22T23:25:23.964Z,1.75
2018-11-22T23:39:14.428Z,1.80
2018-11-22T23:41:42.940Z,1.83
2018-11-22T23:44:11.324Z,1.82
2018-11-22T23:46:39.759Z,1.76
2018-11-22T23:49:08.179Z,1.83
2018-11-22T23:51:36.671Z,1.82
2018-11-22T23:54:05.142Z,1.82
2018-11-22T23:56:33.513Z,1.82
2018-11-22T23:59:01.879Z,1.78
